createdAt,value
2023-04-13T00:00:45.389Z,8.6
2023-04-13T00:02:25.153Z,8.59
2023-04-13T00:04:04.909Z,8.56
2023-04-13T00:05:44.692Z,8.53
2023-04-13T00:07:24.444Z,8.51
2023-04-13T00:09:04.201Z,8.47
2023-04-13T00:10:43.969Z,8.46
2023-04-13T00:12:23.721Z,8.43
2023-04-13T00:14:03.491Z,8.43
2023-04-13T00:15:43.247Z,8.41
2023-04-13T00:17:23.029Z,8.39
2023-04-13T00:19:02.776Z,8.39
2023-04-13T00:20:42.538Z,8.37
2023-04-13T00:22:22.314Z,8.35
2023-04-13T00:24:02.070Z,8.31
2023-04-13T00:25:41.850Z,8.28
2023-04-13T00:27:21.623Z,8.26
2023-04-13T00:29:01.377Z,8.24
2023-04-13T00:30:41.126Z,8.18
2023-04-13T00:32:20.900Z,8.16
2023-04-13T00:34:00.667Z,8.12
2023-04-13T00:35:40.429Z,8.1
2023-04-13T00:37:20.194Z,8.06
2023-04-13T00:38:59.952Z,8.04
2023-04-13T00:40:39.725Z,8.04
2023-04-13T00:42:19.482Z,8.02
2023-04-13T00:43:59.245Z,8
2023-04-13T00:45:38.995Z,7.97
2023-04-13T00:47:18.778Z,7.95
2023-04-13T00:48:58.544Z,7.93
2023-04-13T00:50:38.293Z,7.91
2023-04-13T00:52:18.054Z,7.89
2023-04-13T00:53:57.825Z,7.9
2023-04-13T00:55:37.593Z,7.89
2023-04-13T00:57:17.346Z,7.88
2023-04-13T00:58:57.141Z,7.85
2023-04-13T01:00:36.885Z,7.84
2023-04-13T01:02:16.634Z,7.84
2023-04-13T01:03:56.416Z,7.82
2023-04-13T01:05:36.177Z,7.82
2023-04-13T01:07:15.943Z,7.79
2023-04-13T01:08:55.707Z,7.79
2023-04-13T01:10:35.503Z,7.79
2023-04-13T01:12:15.241Z,7.78
2023-04-13T01:13:54.993Z,7.77
2023-04-13T01:15:34.761Z,7.76
2023-04-13T01:17:14.528Z,7.77
2023-04-13T01:18:54.277Z,7.75
2023-04-13T01:20:34.061Z,7.71
2023-04-13T01:22:13.803Z,7.69
2023-04-13T01:23:53.583Z,7.68
2023-04-13T01:25:33.346Z,7.65
2023-04-13T01:27:13.102Z,7.63
2023-04-13T01:28:52.862Z,7.61
2023-04-13T01:30:32.632Z,7.59
2023-04-13T01:32:12.389Z,7.56
2023-04-13T01:33:52.152Z,7.54
2023-04-13T01:35:31.940Z,7.51
2023-04-13T01:37:11.690Z,7.5
2023-04-13T01:38:51.449Z,7.52
2023-04-13T01:40:31.214Z,7.51
2023-04-13T01:42:10.993Z,7.5
2023-04-13T01:43:50.737Z,7.49
2023-04-13T01:45:30.516Z,7.48
2023-04-13T01:47:10.272Z,7.51
2023-04-13T01:48:50.054Z,7.52
2023-04-13T01:50:29.782Z,7.51
2023-04-13T01:52:09.556Z,7.53
2023-04-13T01:53:49.333Z,7.5
2023-04-13T01:55:29.108Z,7.5
2023-04-13T01:57:08.858Z,7.47
2023-04-13T01:58:48.618Z,7.47
2023-04-13T02:00:28.393Z,7.45
2023-04-13T02:02:08.168Z,7.45
2023-04-13T02:03:47.932Z,7.44
2023-04-13T02:05:27.695Z,7.45
2023-04-13T02:07:07.440Z,7.44
2023-04-13T02:08:47.217Z,7.45
2023-04-13T02:10:26.988Z,7.44
2023-04-13T02:12:06.750Z,7.45
2023-04-13T02:13:46.497Z,7.44
2023-04-13T02:15:26.261Z,7.43
2023-04-13T02:17:06.021Z,7.43
2023-04-13T02:18:45.785Z,7.41
2023-04-13T02:20:25.550Z,7.39
2023-04-13T02:22:05.307Z,7.39
2023-04-13T02:23:45.075Z,7.36
2023-04-13T02:25:24.851Z,7.36
2023-04-13T02:27:04.605Z,7.36
2023-04-13T02:28:44.374Z,7.33
2023-04-13T02:30:24.128Z,7.32
2023-04-13T02:32:03.901Z,7.27
2023-04-13T02:33:43.661Z,7.32
2023-04-13T02:35:23.429Z,7.27
2023-04-13T02:37:03.178Z,7.25
2023-04-13T02:38:42.953Z,7.23
2023-04-13T02:40:22.720Z,7.23
2023-04-13T02:42:02.481Z,7.21
2023-04-13T02:43:42.241Z,7.16
2023-04-13T02:45:22.023Z,7.17
2023-04-13T02:47:01.757Z,7.14
2023-04-13T02:48:41.540Z,7.12
2023-04-13T02:50:21.299Z,7.09
2023-04-13T02:52:01.059Z,7.06
2023-04-13T02:53:40.822Z,7.04
2023-04-13T02:55:20.609Z,7.01
2023-04-13T02:57:00.344Z,7
2023-04-13T02:58:40.124Z,6.94
2023-04-13T03:00:19.890Z,6.93
2023-04-13T03:01:59.647Z,6.91
2023-04-13T03:03:39.396Z,6.88
2023-04-13T03:05:19.175Z,6.87
2023-04-13T03:06:58.937Z,6.82
2023-04-13T03:08:38.705Z,6.82
2023-04-13T03:10:18.459Z,6.77
2023-04-13T03:11:58.224Z,6.74
2023-04-13T03:13:38.006Z,6.72
2023-04-13T03:15:17.750Z,6.71
2023-04-13T03:16:57.512Z,6.67
2023-04-13T03:18:37.285Z,6.65
2023-04-13T03:20:17.058Z,6.63
2023-04-13T03:21:56.806Z,6.62
2023-04-13T03:23:36.580Z,6.62
2023-04-13T03:25:16.347Z,6.6
2023-04-13T03:26:56.106Z,6.6
2023-04-13T03:28:35.861Z,6.6
2023-04-13T03:30:15.641Z,6.6
2023-04-13T03:31:55.397Z,6.62
2023-04-13T03:33:35.155Z,6.61
2023-04-13T03:35:14.933Z,6.6
2023-04-13T03:36:54.687Z,6.6
2023-04-13T03:38:34.463Z,6.6
2023-04-13T03:40:14.213Z,6.58
2023-04-13T03:41:53.993Z,6.57
2023-04-13T03:43:33.741Z,6.55
2023-04-13T03:45:13.503Z,6.55
2023-04-13T03:46:53.269Z,6.52
2023-04-13T03:48:33.037Z,6.51
2023-04-13T03:50:12.796Z,6.51
2023-04-13T03:51:52.567Z,6.49
2023-04-13T03:53:32.316Z,6.47
2023-04-13T03:55:12.093Z,6.5
2023-04-13T03:56:51.865Z,6.46
2023-04-13T03:58:31.622Z,6.45
2023-04-13T04:00:11.370Z,6.45
2023-04-13T04:01:51.149Z,6.45
2023-04-13T04:03:30.907Z,6.43
2023-04-13T04:05:10.666Z,6.44
2023-04-13T04:06:50.442Z,6.4
2023-04-13T04:08:30.212Z,6.38
2023-04-13T04:10:09.964Z,6.35
2023-04-13T04:11:49.716Z,6.34
2023-04-13T04:13:29.485Z,6.33
2023-04-13T04:15:09.256Z,6.33
2023-04-13T04:16:49.035Z,6.32
2023-04-13T04:18:28.778Z,6.29
2023-04-13T04:20:08.538Z,6.27
2023-04-13T04:21:48.318Z,6.23
2023-04-13T04:23:28.074Z,6.22
2023-04-13T04:25:07.840Z,6.22
2023-04-13T04:26:47.614Z,6.2
2023-04-13T04:28:27.359Z,6.18
2023-04-13T04:30:07.122Z,6.17
2023-04-13T04:31:46.895Z,6.17
2023-04-13T04:33:26.657Z,6.14
2023-04-13T04:35:06.417Z,6.16
2023-04-13T04:36:46.184Z,6.12
2023-04-13T04:38:25.941Z,6.12
2023-04-13T04:40:05.712Z,6.14
2023-04-13T04:41:45.472Z,6.09
2023-04-13T04:43:25.260Z,6.09
2023-04-13T04:45:04.990Z,6.08
2023-04-13T04:46:44.761Z,6.11
2023-04-13T04:48:24.534Z,5.99
2023-04-13T04:50:04.300Z,6.08
2023-04-13T04:51:44.050Z,6.08
2023-04-13T04:53:23.815Z,6.05
2023-04-13T04:55:03.581Z,6.09
2023-04-13T04:56:43.355Z,6.08
2023-04-13T04:58:23.117Z,6.08
2023-04-13T05:00:02.893Z,6.06
2023-04-13T05:01:42.637Z,6.06
2023-04-13T05:03:22.411Z,6.04
2023-04-13T05:05:02.173Z,6.02
2023-04-13T05:06:41.930Z,6.02
2023-04-13T05:08:21.704Z,6.05
2023-04-13T05:10:01.471Z,6.03
2023-04-13T05:11:41.223Z,6.02
2023-04-13T05:13:20.992Z,6
2023-04-13T05:15:00.740Z,6.04
2023-04-13T05:16:40.520Z,6.02
2023-04-13T05:18:20.277Z,6.03
2023-04-13T05:20:00.097Z,6.02
2023-04-13T05:21:39.803Z,5.93
2023-04-13T05:23:19.571Z,6.05
2023-04-13T05:24:59.333Z,6.05
2023-04-13T05:26:39.101Z,6.03
2023-04-13T05:28:18.878Z,6.05
2023-04-13T05:29:58.625Z,6.05
2023-04-13T05:31:38.386Z,6.07
2023-04-13T05:33:18.149Z,6.06
2023-04-13T05:34:57.946Z,6.07
2023-04-13T05:36:37.692Z,6.09
2023-04-13T05:38:17.435Z,6.05
2023-04-13T05:39:57.211Z,6.06
2023-04-13T05:41:36.967Z,6.06
2023-04-13T05:43:16.732Z,5.95
2023-04-13T05:44:56.486Z,6.1
2023-04-13T05:46:36.269Z,6.12
2023-04-13T05:48:16.028Z,6.15
2023-04-13T05:49:55.789Z,6.15
2023-04-13T05:51:35.569Z,6.16
2023-04-13T05:53:15.318Z,6.23
2023-04-13T05:54:55.107Z,6.21
2023-04-13T05:56:34.859Z,6.22
2023-04-13T05:58:14.598Z,6.26
2023-04-13T05:59:54.377Z,6.27
2023-04-13T06:01:34.141Z,6.31
2023-04-13T06:03:13.911Z,6.3
2023-04-13T06:04:53.677Z,6.36
2023-04-13T06:06:33.446Z,6.32
2023-04-13T06:08:13.187Z,6.36
2023-04-13T06:09:52.949Z,6.4
2023-04-13T06:11:32.732Z,6.42
2023-04-13T06:13:12.492Z,6.47
2023-04-13T06:14:52.255Z,6.46
2023-04-13T06:16:32.012Z,6.52
2023-04-13T06:18:11.783Z,6.5
2023-04-13T06:19:51.547Z,6.52
2023-04-13T06:21:31.309Z,6.56
2023-04-13T06:23:11.079Z,6.58
2023-04-13T06:24:50.849Z,6.59
2023-04-13T06:26:30.628Z,6.61
2023-04-13T06:28:10.363Z,6.64
2023-04-13T06:29:50.129Z,6.69
2023-04-13T06:31:29.893Z,6.67
2023-04-13T06:33:09.671Z,6.71
2023-04-13T06:34:49.425Z,6.74
2023-04-13T06:36:29.180Z,6.78
2023-04-13T06:38:08.967Z,6.8
2023-04-13T06:39:48.721Z,6.8
2023-04-13T06:41:28.494Z,6.84
2023-04-13T06:43:08.246Z,6.86
2023-04-13T06:44:47.995Z,6.87
2023-04-13T06:46:27.767Z,6.9
2023-04-13T06:48:07.550Z,6.95
2023-04-13T06:49:47.315Z,6.98
2023-04-13T06:51:27.061Z,7.04
2023-04-13T06:53:06.822Z,7.05
2023-04-13T06:54:46.568Z,7.05
2023-04-13T06:56:26.366Z,7.1
2023-04-13T06:58:06.113Z,7.15
2023-04-13T06:59:45.880Z,7.2
2023-04-13T07:01:25.648Z,7.22
2023-04-13T07:03:05.413Z,7.25
2023-04-13T07:04:45.182Z,7.28
2023-04-13T07:06:24.928Z,7.34
2023-04-13T07:08:04.692Z,7.36
2023-04-13T07:09:44.530Z,7.39
2023-04-13T07:11:24.224Z,7.39
2023-04-13T07:13:03.986Z,7.43
2023-04-13T07:14:43.762Z,7.47
2023-04-13T07:16:23.526Z,7.49
2023-04-13T07:18:03.307Z,7.5
2023-04-13T07:19:43.052Z,7.53
2023-04-13T07:21:22.810Z,7.56
2023-04-13T07:23:02.575Z,7.52
2023-04-13T07:24:42.348Z,7.58
2023-04-13T07:26:22.113Z,7.62
2023-04-13T07:28:01.870Z,7.64
2023-04-13T07:29:41.638Z,7.65
2023-04-13T07:31:21.415Z,7.67
2023-04-13T07:33:01.159Z,7.68
2023-04-13T07:34:40.920Z,7.72
2023-04-13T07:36:20.701Z,7.74
2023-04-13T07:38:00.456Z,7.76
2023-04-13T07:39:40.230Z,7.79
2023-04-13T07:41:19.982Z,7.81
2023-04-13T07:42:59.874Z,7.88
2023-04-13T07:44:39.501Z,7.9
2023-04-13T07:46:19.267Z,7.93
2023-04-13T07:47:59.048Z,8
2023-04-13T07:49:38.830Z,8.01
2023-04-13T07:51:18.563Z,8.04
2023-04-13T07:52:58.321Z,8.08
2023-04-13T07:54:38.100Z,8.13
2023-04-13T07:56:17.853Z,8.16
2023-04-13T07:57:57.645Z,8.18
2023-04-13T07:59:37.381Z,8.21
2023-04-13T08:01:17.152Z,8.2
2023-04-13T08:02:56.915Z,8.26
2023-04-13T08:04:36.682Z,8.29
2023-04-13T08:06:16.432Z,8.32
2023-04-13T08:07:56.216Z,8.33
2023-04-13T08:09:35.966Z,8.38
2023-04-13T08:11:15.731Z,8.39
2023-04-13T08:12:55.486Z,8.42
2023-04-13T08:14:35.267Z,8.46
2023-04-13T08:16:15.027Z,8.47
2023-04-13T08:17:54.790Z,8.5
2023-04-13T08:19:34.549Z,8.49
2023-04-13T08:21:14.335Z,8.55
2023-04-13T08:22:54.097Z,8.63
2023-04-13T08:24:33.849Z,8.58
2023-04-13T08:26:13.608Z,8.63
2023-04-13T08:27:53.378Z,8.66
2023-04-13T08:29:33.195Z,8.72
2023-04-13T08:31:12.913Z,8.75
2023-04-13T08:32:52.648Z,8.78
2023-04-13T08:34:32.440Z,8.81
2023-04-13T08:36:12.200Z,8.83
2023-04-13T08:37:51.959Z,8.89
2023-04-13T08:39:31.730Z,8.89
2023-04-13T08:41:11.485Z,8.93
2023-04-13T08:42:51.253Z,8.96
2023-04-13T08:44:31.038Z,8.99
2023-04-13T08:46:10.781Z,9.01
2023-04-13T08:47:50.537Z,9
2023-04-13T08:49:30.293Z,9.05
2023-04-13T08:51:10.063Z,9.06
2023-04-13T08:52:49.887Z,9.05
2023-04-13T08:54:29.587Z,9.14
2023-04-13T08:56:09.357Z,9.12
2023-04-13T08:57:49.110Z,9.16
2023-04-13T08:59:28.890Z,9.17
2023-04-13T09:01:08.656Z,9.18
2023-04-13T09:02:48.416Z,9.18
2023-04-13T09:04:28.193Z,9.21
2023-04-13T09:06:07.927Z,9.22
2023-04-13T09:07:47.826Z,9.28
2023-04-13T09:09:27.472Z,9.31
2023-04-13T09:11:07.313Z,9.34
2023-04-13T09:12:47.005Z,9.39
2023-04-13T09:14:26.754Z,9.43
2023-04-13T09:16:06.643Z,9.49
2023-04-13T09:17:46.284Z,9.51
2023-04-13T09:19:26.061Z,9.57
2023-04-13T09:21:05.943Z,9.62
2023-04-13T09:22:45.571Z,9.64
2023-04-13T09:24:25.408Z,9.68
2023-04-13T09:26:05.166Z,9.71
2023-04-13T09:27:44.874Z,9.71
2023-04-13T09:29:24.660Z,9.71
2023-04-13T09:31:04.411Z,9.75
2023-04-13T09:32:44.175Z,9.75
2023-04-13T09:34:23.930Z,9.78
2023-04-13T09:36:03.699Z,9.79
2023-04-13T09:37:43.474Z,9.79
2023-04-13T09:39:23.297Z,9.82
2023-04-13T09:41:02.986Z,9.84
2023-04-13T09:42:42.751Z,9.88
2023-04-13T09:44:22.591Z,9.92
2023-04-13T09:46:02.290Z,9.97
2023-04-13T09:47:42.037Z,9.99
2023-04-13T09:49:21.812Z,10.04
2023-04-13T09:51:01.581Z,10.08
2023-04-13T09:52:41.388Z,10.09
2023-04-13T09:54:21.111Z,10.12
2023-04-13T09:56:00.888Z,10.14
2023-04-13T09:57:40.611Z,10.12
2023-04-13T09:59:20.455Z,10.14
2023-04-13T10:01:00.187Z,10.17
2023-04-13T10:02:39.955Z,10.18
2023-04-13T10:04:19.686Z,10.17
2023-04-13T10:05:59.456Z,10.22
2023-04-13T10:07:39.220Z,10.24
2023-04-13T10:09:19.006Z,10.27
2023-04-13T10:10:58.735Z,10.28
2023-04-13T10:12:38.524Z,10.31
2023-04-13T10:14:18.302Z,10.33
2023-04-13T10:15:58.027Z,10.34
2023-04-13T10:17:37.794Z,10.37
2023-04-13T10:19:17.622Z,10.38
2023-04-13T10:20:57.326Z,10.38
2023-04-13T10:22:37.131Z,10.47
2023-04-13T10:24:16.851Z,10.5
2023-04-13T10:25:56.623Z,10.56
2023-04-13T10:27:36.464Z,10.64
2023-04-13T10:29:16.149Z,10.7
2023-04-13T10:30:55.891Z,10.74
2023-04-13T10:32:35.696Z,10.76
2023-04-13T10:34:15.424Z,10.81
2023-04-13T10:35:55.181Z,10.81
2023-04-13T10:37:34.952Z,10.82
2023-04-13T10:39:14.714Z,10.84
2023-04-13T10:40:54.482Z,10.87
2023-04-13T10:42:34.283Z,10.91
2023-04-13T10:44:14.041Z,10.96
2023-04-13T10:45:53.773Z,10.98
2023-04-13T10:47:33.532Z,11.05
2023-04-13T10:49:13.296Z,11.08
2023-04-13T10:50:53.066Z,11.17
2023-04-13T10:52:32.827Z,11.22
2023-04-13T10:54:12.585Z,11.26
2023-04-13T10:55:52.363Z,11.31
2023-04-13T10:57:32.119Z,11.34
2023-04-13T10:59:11.871Z,11.36
2023-04-13T11:00:51.655Z,11.39
2023-04-13T11:02:31.411Z,11.41
2023-04-13T11:04:11.182Z,11.42
2023-04-13T11:05:50.940Z,11.41
2023-04-13T11:07:30.720Z,11.44
2023-04-13T11:09:10.470Z,11.4
2023-04-13T11:10:50.259Z,11.48
2023-04-13T11:12:30.000Z,11.49
2023-04-13T11:14:09.772Z,11.5
2023-04-13T11:15:49.543Z,11.54
2023-04-13T11:17:29.308Z,11.54
2023-04-13T11:19:09.063Z,11.57
2023-04-13T11:20:48.812Z,11.58
2023-04-13T11:22:28.591Z,11.55
2023-04-13T11:24:08.357Z,11.67
2023-04-13T11:25:48.142Z,11.65
2023-04-13T11:27:27.880Z,11.66
2023-04-13T11:29:07.643Z,11.69
2023-04-13T11:30:47.422Z,11.7
2023-04-13T11:32:27.226Z,11.7
2023-04-13T11:34:06.936Z,11.73
2023-04-13T11:35:46.685Z,11.73
2023-04-13T11:37:26.455Z,11.77
2023-04-13T11:39:06.207Z,11.75
2023-04-13T11:40:45.986Z,11.75
2023-04-13T11:42:25.746Z,11.73
2023-04-13T11:44:05.559Z,11.74
2023-04-13T11:45:45.306Z,11.76
2023-04-13T11:47:25.032Z,11.77
2023-04-13T11:49:04.794Z,11.82
2023-04-13T11:50:44.565Z,11.85
2023-04-13T11:52:24.332Z,11.88
2023-04-13T11:54:04.184Z,11.89
2023-04-13T11:55:43.858Z,11.93
2023-04-13T11:57:23.616Z,11.94
2023-04-13T11:59:03.407Z,11.98
2023-04-13T12:00:43.297Z,12.01
2023-04-13T12:02:22.921Z,12.03
2023-04-13T12:04:02.826Z,12.05
2023-04-13T12:05:42.477Z,12.09
2023-04-13T12:07:22.203Z,12.11
2023-04-13T12:09:01.959Z,12.11
2023-04-13T12:10:41.741Z,12.15
2023-04-13T12:12:21.497Z,12.27
2023-04-13T12:14:01.272Z,12.38
2023-04-13T12:15:41.021Z,12.44
2023-04-13T12:17:20.775Z,12.48
2023-04-13T12:19:00.552Z,12.51
2023-04-13T12:20:40.339Z,12.49
2023-04-13T12:22:20.080Z,12.55
2023-04-13T12:23:59.855Z,12.51
2023-04-13T12:25:39.612Z,12.55
2023-04-13T12:27:19.389Z,12.63
2023-04-13T12:28:59.143Z,12.75
2023-04-13T12:30:38.894Z,12.82
2023-04-13T12:32:18.655Z,12.96
2023-04-13T12:33:58.453Z,13.02
2023-04-13T12:35:38.191Z,13.08
2023-04-13T12:37:17.967Z,13.11
2023-04-13T12:38:57.719Z,13.1
2023-04-13T12:40:37.485Z,13.07
2023-04-13T12:42:17.251Z,13.06
2023-04-13T12:43:57.008Z,13.01
2023-04-13T12:45:36.896Z,13.01
2023-04-13T12:47:16.587Z,13.06
2023-04-13T12:48:56.307Z,13.22
2023-04-13T12:50:36.119Z,13.3
2023-04-13T12:52:15.828Z,13.45
2023-04-13T12:53:55.607Z,13.47
2023-04-13T12:55:35.509Z,13.52
2023-04-13T12:57:15.131Z,13.53
2023-04-13T12:58:55.051Z,13.51
2023-04-13T13:00:34.687Z,13.54
2023-04-13T13:02:14.431Z,13.6
2023-04-13T13:03:54.385Z,13.7
2023-04-13T13:05:33.948Z,13.8
2023-04-13T13:07:13.820Z,13.98
2023-04-13T13:08:53.680Z,14.11
2023-04-13T13:10:33.260Z,14.23
2023-04-13T13:12:13.106Z,14.29
2023-04-13T13:13:52.779Z,14.26
2023-04-13T13:15:32.768Z,14.26
2023-04-13T13:17:12.469Z,14.24
2023-04-13T13:18:52.069Z,14.33
2023-04-13T13:20:31.915Z,14.47
2023-04-13T13:22:11.637Z,14.53
2023-04-13T13:23:51.451Z,14.61
2023-04-13T13:25:31.224Z,14.59
2023-04-13T13:27:10.878Z,14.69
2023-04-13T13:28:50.771Z,14.79
2023-04-13T13:30:30.458Z,14.86
2023-04-13T13:32:10.172Z,14.82
2023-04-13T13:33:49.985Z,14.86
2023-04-13T13:35:29.736Z,14.92
2023-04-13T13:37:09.457Z,15
2023-04-13T13:38:49.444Z,15.11
2023-04-13T13:40:29.176Z,15.19
2023-04-13T13:42:08.922Z,15.18
2023-04-13T13:43:48.680Z,15.1
2023-04-13T13:45:28.331Z,15.02
2023-04-13T13:47:08.046Z,14.91
2023-04-13T13:48:47.907Z,14.86
2023-04-13T13:50:27.773Z,14.89
2023-04-13T13:52:07.472Z,15
2023-04-13T13:53:47.302Z,15.09
2023-04-13T13:55:26.989Z,15.14
2023-04-13T13:57:06.785Z,15.25
2023-04-13T13:58:46.521Z,15.32
2023-04-13T14:00:26.196Z,15.42
2023-04-13T14:02:06.063Z,15.54
2023-04-13T14:03:45.676Z,15.67
2023-04-13T14:05:25.576Z,15.6
2023-04-13T14:07:05.210Z,15.65
2023-04-13T14:08:45.113Z,15.76
2023-04-13T14:10:24.913Z,15.87
2023-04-13T14:12:04.494Z,15.89
2023-04-13T14:13:44.411Z,15.95
2023-04-13T14:15:24.027Z,16
2023-04-13T14:17:03.914Z,16.09
2023-04-13T14:18:43.590Z,16.16
2023-04-13T14:20:23.321Z,16.19
2023-04-13T14:22:03.073Z,16.18
2023-04-13T14:23:42.824Z,16.03
2023-04-13T14:25:22.601Z,15.89
2023-04-13T14:27:02.404Z,15.93
2023-04-13T14:28:42.126Z,16
2023-04-13T14:30:21.907Z,15.93
2023-04-13T14:32:01.773Z,15.89
2023-04-13T14:33:41.588Z,15.99
2023-04-13T14:35:21.249Z,16.06
2023-04-13T14:37:01.001Z,16.07
2023-04-13T14:38:40.723Z,16.07
2023-04-13T14:40:20.489Z,16
2023-04-13T14:42:00.265Z,15.92
2023-04-13T14:43:40.030Z,15.89
2023-04-13T14:45:19.771Z,15.91
2023-04-13T14:46:59.608Z,15.91
2023-04-13T14:48:39.599Z,15.91
2023-04-13T14:50:19.260Z,15.98
2023-04-13T14:51:58.851Z,16.09
2023-04-13T14:53:38.747Z,16.11
2023-04-13T14:55:18.358Z,16.12
2023-04-13T14:56:58.130Z,16.2
2023-04-13T14:58:38.074Z,16.25
2023-04-13T15:00:17.739Z,16.26
2023-04-13T15:01:57.413Z,16.21
2023-04-13T15:03:37.273Z,16.23
2023-04-13T15:05:16.950Z,16.25
2023-04-13T15:06:56.722Z,16.19
2023-04-13T15:08:36.623Z,16.11
2023-04-13T15:10:16.338Z,16.06
2023-04-13T15:11:56.032Z,16
2023-04-13T15:13:35.764Z,15.98
2023-04-13T15:15:15.636Z,16.02
2023-04-13T15:16:55.425Z,16.08
2023-04-13T15:18:35.072Z,16.15
2023-04-13T15:20:14.959Z,16.19
2023-04-13T15:21:54.749Z,16.2
2023-04-13T15:23:34.355Z,16.18
2023-04-13T15:25:14.299Z,16.14
2023-04-13T15:26:53.898Z,16.08
2023-04-13T15:28:33.783Z,16.03
2023-04-13T15:30:13.570Z,15.95
2023-04-13T15:31:53.200Z,15.84
2023-04-13T15:33:33.043Z,15.76
2023-04-13T15:35:12.809Z,15.67
2023-04-13T15:36:52.622Z,15.6
2023-04-13T15:38:32.225Z,15.49
2023-04-13T15:40:12.133Z,15.41
2023-04-13T15:41:51.810Z,15.31
2023-04-13T15:43:31.527Z,15.16
2023-04-13T15:45:11.317Z,15.13
2023-04-13T15:46:51.083Z,15.08
2023-04-13T15:48:30.809Z,15.02
2023-04-13T15:50:10.675Z,15
2023-04-13T15:51:50.419Z,14.96
2023-04-13T15:53:30.295Z,14.94
2023-04-13T15:55:09.860Z,14.96
2023-04-13T15:56:49.784Z,15.05
2023-04-13T15:58:29.503Z,15.1
2023-04-13T16:00:09.148Z,15.17
2023-04-13T16:01:48.929Z,15.22
2023-04-13T16:03:28.688Z,15.22
2023-04-13T16:05:08.459Z,15.21
2023-04-13T16:06:48.227Z,15.17
2023-04-13T16:08:28.051Z,15.13
2023-04-13T16:10:07.914Z,15.05
2023-04-13T16:11:47.581Z,15.01
2023-04-13T16:13:27.440Z,14.95
2023-04-13T16:15:07.036Z,14.9
2023-04-13T16:16:46.923Z,14.86
2023-04-13T16:18:26.596Z,14.76
2023-04-13T16:20:06.431Z,14.77
2023-04-13T16:21:46.264Z,14.71
2023-04-13T16:23:25.956Z,14.68
2023-04-13T16:25:05.682Z,14.65
2023-04-13T16:26:45.485Z,14.62
2023-04-13T16:28:25.158Z,14.58
2023-04-13T16:30:05.029Z,14.58
2023-04-13T16:31:44.786Z,14.52
2023-04-13T16:33:24.552Z,14.48
2023-04-13T16:35:04.307Z,14.46
2023-04-13T16:36:44.020Z,14.4
2023-04-13T16:38:23.841Z,14.35
2023-04-13T16:40:03.506Z,14.33
2023-04-13T16:41:43.265Z,14.31
2023-04-13T16:43:23.017Z,14.27
2023-04-13T16:45:02.786Z,14.24
2023-04-13T16:46:42.570Z,14.2
2023-04-13T16:48:22.308Z,14.19
2023-04-13T16:50:02.186Z,14.14
2023-04-13T16:51:41.849Z,14.13
2023-04-13T16:53:21.657Z,14.09
2023-04-13T16:55:01.420Z,14.07
2023-04-13T16:56:41.258Z,14.02
2023-04-13T16:58:20.890Z,13.99
2023-04-13T17:00:00.809Z,13.95
2023-04-13T17:01:40.501Z,13.92
2023-04-13T17:03:20.336Z,13.89
2023-04-13T17:04:59.938Z,13.87
2023-04-13T17:06:39.732Z,13.78
2023-04-13T17:08:19.531Z,13.85
2023-04-13T17:09:59.358Z,13.81
2023-04-13T17:11:39.126Z,13.79
2023-04-13T17:13:18.811Z,13.75
2023-04-13T17:14:58.549Z,13.75
2023-04-13T17:16:38.290Z,13.71
2023-04-13T17:18:18.072Z,13.69
2023-04-13T17:19:57.938Z,13.65
2023-04-13T17:21:37.588Z,13.64
2023-04-13T17:23:17.349Z,13.61
2023-04-13T17:24:57.158Z,13.58
2023-04-13T17:26:36.879Z,13.54
2023-04-13T17:28:16.641Z,13.51
2023-04-13T17:29:56.410Z,13.48
2023-04-13T17:31:36.218Z,13.46
2023-04-13T17:33:15.947Z,13.42
2023-04-13T17:34:55.723Z,13.38
2023-04-13T17:36:35.488Z,13.32
2023-04-13T17:38:15.232Z,13.29
2023-04-13T17:39:55.468Z,13.23
2023-04-13T17:41:34.752Z,13.18
2023-04-13T17:43:14.752Z,13.13
2023-04-13T17:44:54.283Z,13.07
2023-04-13T17:46:34.056Z,13
2023-04-13T17:48:13.835Z,12.95
2023-04-13T17:49:53.714Z,12.89
2023-04-13T17:51:33.351Z,12.82
2023-04-13T17:53:13.120Z,12.73
2023-04-13T17:54:52.882Z,12.71
2023-04-13T17:56:32.631Z,12.63
2023-04-13T17:58:12.404Z,12.58
2023-04-13T17:59:52.182Z,12.53
2023-04-13T18:01:31.940Z,12.45
2023-04-13T18:03:11.706Z,12.41
2023-04-13T18:04:51.521Z,12.34
2023-04-13T18:06:31.218Z,12.28
2023-04-13T18:08:10.989Z,12.22
2023-04-13T18:09:50.751Z,12.19
2023-04-13T18:11:30.519Z,12.12
2023-04-13T18:13:10.325Z,12.08
2023-04-13T18:14:50.052Z,12.02
2023-04-13T18:16:29.820Z,11.97
2023-04-13T18:18:09.640Z,11.92
2023-04-13T18:19:49.345Z,11.86
2023-04-13T18:21:29.104Z,11.8
2023-04-13T18:23:08.867Z,11.73
2023-04-13T18:24:48.619Z,11.69
2023-04-13T18:26:28.397Z,11.63
2023-04-13T18:28:08.255Z,11.59
2023-04-13T18:29:47.908Z,11.54
2023-04-13T18:31:27.691Z,11.51
2023-04-13T18:33:07.488Z,11.46
2023-04-13T18:34:47.323Z,11.4
2023-04-13T18:36:26.973Z,11.35
2023-04-13T18:38:06.743Z,11.29
2023-04-13T18:39:46.573Z,11.24
2023-04-13T18:41:26.317Z,11.19
2023-04-13T18:43:06.170Z,11.13
2023-04-13T18:44:45.937Z,11.07
2023-04-13T18:46:25.714Z,11.05
2023-04-13T18:48:05.468Z,11.01
2023-04-13T18:49:45.227Z,10.96
2023-04-13T18:51:24.990Z,10.91
2023-04-13T18:53:04.776Z,10.89
2023-04-13T18:54:44.512Z,10.83
2023-04-13T18:56:24.339Z,10.79
2023-04-13T18:58:04.034Z,10.75
2023-04-13T18:59:43.822Z,10.68
2023-04-13T19:01:23.600Z,10.67
2023-04-13T19:03:03.349Z,10.62
2023-04-13T19:04:43.097Z,10.55
2023-04-13T19:06:22.866Z,10.52
2023-04-13T19:08:02.700Z,10.47
2023-04-13T19:09:42.386Z,10.45
2023-04-13T19:11:22.142Z,10.43
2023-04-13T19:13:01.925Z,10.42
2023-04-13T19:14:41.700Z,10.41
2023-04-13T19:16:21.457Z,10.42
2023-04-13T19:18:01.212Z,10.41
2023-04-13T19:19:40.979Z,10.43
2023-04-13T19:21:20.732Z,10.41
2023-04-13T19:23:00.517Z,10.42
2023-04-13T19:24:40.268Z,10.43
2023-04-13T19:26:20.029Z,10.4
2023-04-13T19:27:59.795Z,10.39
2023-04-13T19:29:39.570Z,10.37
2023-04-13T19:31:19.314Z,10.33
2023-04-13T19:32:59.131Z,10.29
2023-04-13T19:34:38.847Z,10.26
2023-04-13T19:36:18.638Z,10.21
2023-04-13T19:37:58.387Z,10.17
2023-04-13T19:39:38.134Z,10.13
2023-04-13T19:41:17.912Z,10.1
2023-04-13T19:42:57.690Z,10.06
2023-04-13T19:44:37.436Z,10.02
2023-04-13T19:46:17.220Z,9.97
2023-04-13T19:47:56.971Z,9.93
2023-04-13T19:49:36.724Z,9.91
2023-04-13T19:51:16.557Z,9.85
2023-04-13T19:52:56.256Z,9.81
2023-04-13T19:54:36.015Z,9.77
2023-04-13T19:56:15.780Z,9.7
2023-04-13T19:57:55.549Z,9.66
2023-04-13T19:59:35.310Z,9.6
2023-04-13T20:01:15.069Z,9.6
2023-04-13T20:02:54.838Z,9.54
2023-04-13T20:04:34.617Z,9.51
2023-04-13T20:06:14.413Z,9.5
2023-04-13T20:07:54.208Z,9.45
2023-04-13T20:09:33.898Z,9.42
2023-04-13T20:11:13.741Z,9.39
2023-04-13T20:12:53.427Z,9.34
2023-04-13T20:14:33.242Z,9.33
2023-04-13T20:16:12.983Z,9.3
2023-04-13T20:17:52.722Z,9.29
2023-04-13T20:19:32.461Z,9.25
2023-04-13T20:21:12.297Z,9.21
2023-04-13T20:22:52.002Z,9.18
2023-04-13T20:24:31.752Z,9.16
2023-04-13T20:26:11.519Z,9.13
2023-04-13T20:27:51.333Z,9.1
2023-04-13T20:29:31.096Z,9.09
2023-04-13T20:31:10.814Z,9.08
2023-04-13T20:32:50.636Z,9.07
2023-04-13T20:34:30.350Z,9.05
2023-04-13T20:36:10.108Z,9.03
2023-04-13T20:37:49.884Z,9
2023-04-13T20:39:29.637Z,8.96
2023-04-13T20:41:09.403Z,8.93
2023-04-13T20:42:49.261Z,8.92
2023-04-13T20:44:28.926Z,8.88
2023-04-13T20:46:08.690Z,8.84
2023-04-13T20:47:48.468Z,8.8
2023-04-13T20:49:28.269Z,8.75
2023-04-13T20:51:08.029Z,8.76
2023-04-13T20:52:47.751Z,8.72
2023-04-13T20:54:27.515Z,8.68
2023-04-13T20:56:07.276Z,8.67
2023-04-13T20:57:47.088Z,8.64
2023-04-13T20:59:26.866Z,8.64
2023-04-13T21:01:06.583Z,8.62
2023-04-13T21:02:46.333Z,8.59
2023-04-13T21:04:26.147Z,8.57
2023-04-13T21:06:05.864Z,8.55
2023-04-13T21:07:45.633Z,8.52
2023-04-13T21:09:25.402Z,8.49
2023-04-13T21:11:05.168Z,8.45
2023-04-13T21:12:44.922Z,8.42
2023-04-13T21:14:24.680Z,8.38
2023-04-13T21:16:04.470Z,8.35
2023-04-13T21:17:44.222Z,8.32
2023-04-13T21:19:23.969Z,8.3
2023-04-13T21:21:03.726Z,8.25
2023-04-13T21:22:43.509Z,8.25
2023-04-13T21:24:23.269Z,8.24
2023-04-13T21:26:03.031Z,8.22
2023-04-13T21:27:42.788Z,8.2
2023-04-13T21:29:22.553Z,8.16
2023-04-13T21:31:02.328Z,8.14
2023-04-13T21:32:42.140Z,8.12
2023-04-13T21:34:21.852Z,8.09
2023-04-13T21:36:01.611Z,8.08
2023-04-13T21:37:41.370Z,8.04
2023-04-13T21:39:21.139Z,8.03
2023-04-13T21:41:00.930Z,8.01
2023-04-13T21:42:40.673Z,7.98
2023-04-13T21:44:20.433Z,7.96
2023-04-13T21:46:00.388Z,7.93
2023-04-13T21:47:40.113Z,7.9
2023-04-13T21:49:19.718Z,7.86
2023-04-13T21:50:59.494Z,7.86
2023-04-13T21:52:39.247Z,7.83
2023-04-13T21:54:19.015Z,7.8